createdAt,value
2023-07-17T00:00:14.201Z,5.00
2023-07-17T00:02:46.029Z,6.90
2023-07-17T00:05:18.030Z,4.88
2023-07-17T00:07:49.933Z,4.50
2023-07-17T00:10:21.751Z,5.32
2023-07-17T00:12:53.540Z,4.32
2023-07-17T00:15:25.399Z,5.85
2023-07-17T00:17:57.194Z,5.55
2023-07-17T00:20:29.044Z,6.85
2023-07-17T00:23:01.063Z,3.58
2023-07-17T00:25:32.906Z,4.10
2023-07-17T00:28:04.735Z,4.72
2023-07-17T00:30:36.592Z,4.38
2023-07-17T00:33:08.532Z,6.60
2023-07-17T00:35:40.344Z,4.45
2023-07-17T00:38:12.131Z,4.95
2023-07-17T00:40:44.314Z,7.07
2023-07-17T00:43:16.221Z,6.75
2023-07-17T00:45:48.915Z,4.88
2023-07-17T00:48:20.806Z,4.20
2023-07-17T00:50:52.932Z,4.80
2023-07-17T00:53:24.693Z,4.18
2023-07-17T00:55:56.580Z,4.25
2023-07-17T00:58:28.408Z,5.70
2023-07-17T01:01:00.272Z,4.90
2023-07-17T01:03:33.281Z,4.75
2023-07-17T01:06:05.791Z,5.97
2023-07-17T01:08:37.656Z,6.10
2023-07-17T01:11:10.264Z,4.97
2023-07-17T01:13:50.335Z,6.53
2023-07-17T01:16:22.106Z,4.80
2023-07-17T01:18:53.958Z,12.27
2023-07-17T01:21:32.581Z,5.88
2023-07-17T01:24:04.616Z,5.60
2023-07-17T01:26:36.380Z,6.22
2023-07-17T01:29:08.200Z,4.32
2023-07-17T01:31:41.440Z,4.20
2023-07-17T01:34:13.248Z,8.32
2023-07-17T01:36:45.133Z,4.35
2023-07-17T01:39:16.965Z,4.80
2023-07-17T01:41:48.841Z,6.88
2023-07-17T01:44:20.688Z,4.50
2023-07-17T01:46:52.491Z,5.45
2023-07-17T01:49:24.347Z,7.00
2023-07-17T01:51:56.186Z,4.35
2023-07-17T01:54:27.944Z,4.55
2023-07-17T01:56:59.743Z,5.60
2023-07-17T01:59:31.624Z,4.82
2023-07-17T02:02:04.444Z,4.60
2023-07-17T02:04:36.369Z,4.53
2023-07-17T02:07:08.160Z,4.97
2023-07-17T02:09:40.108Z,5.22
2023-07-17T02:12:11.888Z,6.38
2023-07-17T02:14:43.686Z,5.72
2023-07-17T02:17:15.506Z,4.75
2023-07-17T02:19:47.268Z,5.97
2023-07-17T02:22:19.039Z,4.43
2023-07-17T02:24:50.816Z,5.65
2023-07-17T02:27:22.738Z,4.68
2023-07-17T02:29:55.388Z,4.35
2023-07-17T02:32:29.708Z,4.47
2023-07-17T02:35:01.522Z,5.05
2023-07-17T02:37:33.598Z,4.78
2023-07-17T02:40:15.180Z,5.63
2023-07-17T02:42:46.981Z,5.40
2023-07-17T02:45:19.193Z,5.22
2023-07-17T02:47:51.196Z,4.82
2023-07-17T02:50:23.081Z,5.35
2023-07-17T02:52:54.965Z,4.90
2023-07-17T02:55:26.987Z,6.15
2023-07-17T02:57:58.837Z,4.57
2023-07-17T03:00:30.648Z,4.68
2023-07-17T03:03:07.098Z,5.00
2023-07-17T03:05:39.107Z,6.15
2023-07-17T03:08:11.539Z,6.13
2023-07-17T03:10:43.367Z,6.70
2023-07-17T03:13:15.232Z,4.60
2023-07-17T03:15:49.047Z,5.47
2023-07-17T03:18:20.858Z,4.60
2023-07-17T03:20:52.862Z,4.65
2023-07-17T03:23:24.666Z,5.13
2023-07-17T03:25:59.460Z,5.30
2023-07-17T03:28:31.501Z,4.55
2023-07-17T03:31:03.468Z,6.35
2023-07-17T03:33:35.652Z,8.25
2023-07-17T03:36:08.122Z,4.57
2023-07-17T03:38:39.883Z,5.25
2023-07-17T03:41:11.671Z,4.82
2023-07-17T03:43:43.448Z,5.75
2023-07-17T03:46:15.601Z,5.05
2023-07-17T03:48:47.386Z,5.20
2023-07-17T03:51:19.334Z,4.70
2023-07-17T03:53:54.307Z,5.20
2023-07-17T03:56:26.254Z,5.93
2023-07-17T03:58:58.035Z,6.65
2023-07-17T04:01:30.778Z,5.90
2023-07-17T04:04:02.667Z,6.55
2023-07-17T04:06:34.478Z,5.88
2023-07-17T04:09:06.262Z,4.82
2023-07-17T04:11:38.030Z,4.82
2023-07-17T04:14:10.331Z,7.70
2023-07-17T04:16:42.137Z,4.88
2023-07-17T04:19:14.061Z,4.53
2023-07-17T04:21:45.807Z,4.40
2023-07-17T04:24:17.665Z,5.10
2023-07-17T04:26:49.544Z,5.68
2023-07-17T04:29:24.712Z,3.97
2023-07-17T04:31:56.579Z,5.70
2023-07-17T04:34:30.191Z,4.35
2023-07-17T04:37:01.999Z,4.90
2023-07-17T04:39:34.167Z,6.97
2023-07-17T04:42:06.096Z,5.75
2023-07-17T04:44:37.880Z,4.32
2023-07-17T04:47:09.757Z,4.32
2023-07-17T04:49:41.668Z,5.70
2023-07-17T04:52:13.469Z,4.95
2023-07-17T04:54:45.217Z,7.07
2023-07-17T04:57:17.154Z,4.03
2023-07-17T04:59:48.929Z,5.95
2023-07-17T05:02:21.028Z,4.80
2023-07-17T05:04:52.885Z,6.85
2023-07-17T05:07:24.686Z,7.22
2023-07-17T05:09:56.518Z,4.38
2023-07-17T05:12:29.235Z,5.18
2023-07-17T05:15:01.068Z,4.25
2023-07-17T05:17:32.946Z,5.50
2023-07-17T05:20:08.059Z,10.55
2023-07-17T05:22:39.901Z,4.70
2023-07-17T05:25:11.737Z,5.28
2023-07-17T05:27:43.549Z,8.60
2023-07-17T05:30:15.545Z,4.45
2023-07-17T05:32:47.386Z,6.32
2023-07-17T05:35:19.463Z,6.30
2023-07-17T05:37:51.322Z,4.97
2023-07-17T05:40:23.212Z,5.07
2023-07-17T05:42:55.211Z,6.53
2023-07-17T05:45:26.980Z,5.97
2023-07-17T05:47:58.799Z,4.60
2023-07-17T05:50:30.601Z,4.40
2023-07-17T05:53:02.408Z,5.82
2023-07-17T05:55:34.175Z,4.18
2023-07-17T05:58:05.924Z,8.32
2023-07-17T06:00:37.729Z,4.53
2023-07-17T06:03:09.567Z,4.13
2023-07-17T06:05:41.465Z,5.95
2023-07-17T06:08:13.237Z,4.70
2023-07-17T06:10:45.076Z,4.30
2023-07-17T06:13:17.914Z,4.95
2023-07-17T06:15:49.729Z,7.82
2023-07-17T06:18:21.581Z,5.35
2023-07-17T06:20:53.397Z,5.30
2023-07-17T06:23:25.277Z,3.85
2023-07-17T06:25:57.486Z,6.05
2023-07-17T06:28:30.812Z,4.65
2023-07-17T06:31:02.612Z,7.60
2023-07-17T06:33:37.280Z,4.50
2023-07-17T06:36:09.212Z,5.28
2023-07-17T06:38:41.109Z,5.85
2023-07-17T06:41:12.871Z,4.88
2023-07-17T06:43:44.814Z,5.90
2023-07-17T06:46:18.245Z,4.63
2023-07-17T06:48:50.261Z,5.18
2023-07-17T06:51:22.052Z,3.83
2023-07-17T06:53:54.799Z,6.43
2023-07-17T06:56:26.582Z,6.38
2023-07-17T06:58:58.812Z,4.80
2023-07-17T07:01:30.611Z,7.43
2023-07-17T07:04:02.481Z,3.97
2023-07-17T07:06:34.360Z,6.68
2023-07-17T07:09:06.162Z,5.07
2023-07-17T07:11:37.974Z,7.93
2023-07-17T07:14:09.751Z,6.20
2023-07-17T07:16:41.601Z,4.80
2023-07-17T07:19:13.461Z,4.85
2023-07-17T07:21:45.335Z,4.78
2023-07-17T07:24:17.160Z,6.80
2023-07-17T07:26:49.046Z,3.78
2023-07-17T07:29:20.844Z,8.35
2023-07-17T07:31:52.858Z,9.65
2023-07-17T07:34:24.909Z,7.60
2023-07-17T07:36:56.692Z,7.22
2023-07-17T07:39:28.470Z,8.05
2023-07-17T07:42:00.338Z,7.60
2023-07-17T07:44:32.109Z,5.97
2023-07-17T07:47:03.967Z,4.85
2023-07-17T07:49:35.912Z,6.95
2023-07-17T07:52:08.251Z,7.22
2023-07-17T07:54:40.066Z,5.68
2023-07-17T07:57:12.078Z,5.13
2023-07-17T07:59:43.859Z,5.78
2023-07-17T08:02:15.796Z,4.90
2023-07-17T08:04:47.683Z,6.63
2023-07-17T08:07:19.498Z,5.20
2023-07-17T08:09:52.687Z,5.72
2023-07-17T08:12:24.550Z,3.65
2023-07-17T08:14:56.330Z,5.55
2023-07-17T08:17:28.165Z,7.90
2023-07-17T08:19:59.982Z,6.15
2023-07-17T08:22:31.776Z,7.05
2023-07-17T08:25:04.073Z,7.60
2023-07-17T08:27:35.895Z,6.07
2023-07-17T08:30:08.480Z,4.93
2023-07-17T08:32:40.395Z,5.05
2023-07-17T08:35:12.327Z,7.03
2023-07-17T08:37:44.124Z,5.80
2023-07-17T08:40:15.939Z,6.03
2023-07-17T08:42:51.292Z,6.75
2023-07-17T08:45:24.604Z,7.40
2023-07-17T08:47:56.814Z,7.28
2023-07-17T08:50:30.094Z,6.93
2023-07-17T08:53:02.141Z,8.38
2023-07-17T08:55:34.109Z,5.00
2023-07-17T08:58:06.209Z,5.43
2023-07-17T09:00:38.304Z,5.50
2023-07-17T09:03:10.208Z,5.45
2023-07-17T09:05:44.544Z,6.47
2023-07-17T09:08:16.541Z,5.93
2023-07-17T09:11:09.854Z,5.45
2023-07-17T09:13:44.174Z,4.13
2023-07-17T09:16:16.902Z,6.28
2023-07-17T09:18:50.231Z,6.72
2023-07-17T09:21:24.285Z,3.45
2023-07-17T09:23:57.978Z,7.13
2023-07-17T09:26:30.678Z,8.52
2023-07-17T09:29:02.552Z,3.67
2023-07-17T09:31:34.329Z,3.22
2023-07-17T09:34:14.612Z,4.60
2023-07-17T09:36:51.482Z,3.33
2023-07-17T09:39:23.782Z,4.25
2023-07-17T09:41:55.550Z,10.57
2023-07-17T09:44:28.431Z,8.05
2023-07-17T09:47:01.388Z,4.43
2023-07-17T09:49:33.284Z,3.78
2023-07-17T09:52:05.529Z,3.42
2023-07-17T09:54:39.952Z,7.85
2023-07-17T09:57:21.497Z,6.03
2023-07-17T09:59:55.988Z,3.17
2023-07-17T10:02:57.320Z,4.53
2023-07-17T10:05:30.006Z,2.75
2023-07-17T10:08:06.816Z,3.08
2023-07-17T10:10:39.049Z,4.00
2023-07-17T10:13:12.356Z,4.10
2023-07-17T10:15:47.080Z,8.48
2023-07-17T10:18:18.863Z,7.32
2023-07-17T10:20:55.446Z,4.55
2023-07-17T10:23:28.862Z,4.82
2023-07-17T10:26:09.489Z,4.72
2023-07-17T10:28:42.742Z,3.85
2023-07-17T10:31:20.844Z,2.65
2023-07-17T10:33:57.089Z,3.28
2023-07-17T10:36:44.381Z,4.82
2023-07-17T10:39:20.752Z,4.45
2023-07-17T10:41:52.732Z,5.40
2023-07-17T10:44:24.630Z,3.20
2023-07-17T10:46:56.576Z,4.45
2023-07-17T10:49:28.371Z,2.78
2023-07-17T10:52:00.139Z,3.47
2023-07-17T10:54:31.963Z,2.90
2023-07-17T10:57:04.456Z,4.55
2023-07-17T10:59:36.996Z,3.10
2023-07-17T11:02:08.908Z,3.40
2023-07-17T11:04:40.721Z,2.80
2023-07-17T11:07:13.211Z,4.82
2023-07-17T11:09:45.840Z,3.90
2023-07-17T11:12:20.377Z,2.60
2023-07-17T11:14:55.208Z,2.97
2023-07-17T11:17:27.147Z,3.13
2023-07-17T11:20:04.952Z,4.15
2023-07-17T11:22:38.192Z,5.95
2023-07-17T11:25:12.249Z,4.30
2023-07-17T11:27:44.414Z,2.42
2023-07-17T11:30:27.423Z,2.58
2023-07-17T11:32:59.313Z,2.55
2023-07-17T11:35:42.038Z,4.80
2023-07-17T11:38:17.090Z,4.93
2023-07-17T11:40:59.734Z,2.92
2023-07-17T11:43:38.983Z,2.80
2023-07-17T11:46:11.232Z,4.72
2023-07-17T11:48:46.033Z,4.20
2023-07-17T11:51:18.073Z,3.40
2023-07-17T11:53:57.341Z,4.18
2023-07-17T11:56:41.216Z,3.53
2023-07-17T11:59:25.718Z,5.65
2023-07-17T12:01:57.750Z,3.78
2023-07-17T12:04:33.755Z,3.25
2023-07-17T12:07:06.067Z,3.75
2023-07-17T12:09:37.870Z,5.38
2023-07-17T12:12:10.231Z,3.92
2023-07-17T12:14:42.142Z,5.03
2023-07-17T12:17:14.232Z,5.03
2023-07-17T12:19:46.029Z,5.75
2023-07-17T12:24:52.800Z,4.65
2023-07-17T12:27:26.292Z,7.20
2023-07-17T12:30:00.597Z,3.58
2023-07-17T12:32:32.407Z,4.05
2023-07-17T12:35:04.461Z,6.72
2023-07-17T12:37:37.000Z,6.38
2023-07-17T12:40:09.491Z,4.72
2023-07-17T12:42:41.504Z,6.80
2023-07-17T12:45:13.432Z,5.68
2023-07-17T12:47:46.090Z,5.95
2023-07-17T12:50:18.118Z,5.35
2023-07-17T12:52:49.914Z,3.15
2023-07-17T12:55:23.205Z,3.38
2023-07-17T12:57:55.701Z,4.53
2023-07-17T13:00:27.812Z,4.22
2023-07-17T13:02:59.836Z,3.97
2023-07-17T13:05:31.730Z,3.72
2023-07-17T13:08:04.517Z,3.05
2023-07-17T13:10:36.683Z,3.75
2023-07-17T13:13:08.457Z,4.63
2023-07-17T13:15:40.285Z,3.47
2023-07-17T13:18:12.181Z,3.42
2023-07-17T13:20:44.326Z,6.68
2023-07-17T13:23:16.262Z,4.07
2023-07-17T13:25:48.198Z,4.75
2023-07-17T13:28:20.093Z,5.72
2023-07-17T13:31:07.411Z,8.27
2023-07-17T13:33:41.713Z,4.07
2023-07-17T13:36:13.575Z,5.07
2023-07-17T13:38:45.514Z,6.22
2023-07-17T13:41:49.388Z,4.88
2023-07-17T13:44:22.053Z,5.75
2023-07-17T13:46:53.982Z,2.58
2023-07-17T13:49:25.815Z,5.55
2023-07-17T13:51:57.660Z,4.22
2023-07-17T13:54:29.625Z,3.17
2023-07-17T13:57:03.212Z,4.05
2023-07-17T13:59:35.255Z,3.90
2023-07-17T14:02:07.369Z,4.15
2023-07-17T14:04:41.005Z,5.43
2023-07-17T14:07:13.065Z,3.15
2023-07-17T14:09:44.863Z,4.05
2023-07-17T14:12:16.720Z,5.78
2023-07-17T14:14:48.491Z,7.13
2023-07-17T14:17:20.476Z,4.43
2023-07-17T14:19:52.290Z,3.17
2023-07-17T14:22:24.313Z,5.85
2023-07-17T14:24:56.463Z,6.25
2023-07-17T14:27:28.618Z,4.72
2023-07-17T14:30:00.417Z,4.50
2023-07-17T14:32:32.289Z,3.33
2023-07-17T14:35:04.303Z,5.05
2023-07-17T14:37:36.293Z,5.88
2023-07-17T14:40:08.760Z,5.10
2023-07-17T14:42:40.583Z,6.63
2023-07-17T14:45:12.471Z,4.32
2023-07-17T14:47:44.454Z,4.80
2023-07-17T14:50:21.288Z,7.30
2023-07-17T14:52:53.295Z,3.80
2023-07-17T14:55:25.619Z,3.72
2023-07-17T14:57:57.432Z,6.68
2023-07-17T15:00:29.272Z,6.03
2023-07-17T15:03:01.254Z,4.55
2023-07-17T15:05:33.101Z,5.20
2023-07-17T15:08:05.073Z,3.75
2023-07-17T15:10:37.046Z,6.28
2023-07-17T15:13:09.119Z,8.25
2023-07-17T15:15:41.003Z,5.55
2023-07-17T15:18:12.811Z,7.30
2023-07-17T15:20:44.596Z,5.38
2023-07-17T15:23:16.614Z,5.03
2023-07-17T15:25:48.879Z,5.00
2023-07-17T15:28:20.783Z,5.30
2023-07-17T15:30:52.584Z,4.88
2023-07-17T15:33:26.856Z,4.97
2023-07-17T15:35:58.745Z,4.47
2023-07-17T15:38:30.500Z,4.43
2023-07-17T15:41:02.311Z,6.32
2023-07-17T15:43:34.645Z,5.97
2023-07-17T15:46:06.532Z,5.20
2023-07-17T15:48:38.296Z,5.72
2023-07-17T15:51:10.148Z,6.63
2023-07-17T15:53:42.069Z,5.43
2023-07-17T15:56:13.916Z,6.50
2023-07-17T15:58:45.771Z,4.82
2023-07-17T16:01:18.766Z,4.88
2023-07-17T16:03:50.679Z,3.78
2023-07-17T16:06:22.485Z,3.60
2023-07-17T16:08:54.261Z,3.58
2023-07-17T16:11:26.089Z,4.05
2023-07-17T16:13:57.900Z,4.93
2023-07-17T16:16:29.769Z,4.75
2023-07-17T16:19:01.564Z,4.80
2023-07-17T16:21:33.474Z,4.88
2023-07-17T16:24:05.544Z,7.47
2023-07-17T16:26:37.352Z,8.15
2023-07-17T16:29:09.129Z,5.93
2023-07-17T16:31:41.415Z,4.78
2023-07-17T16:34:13.241Z,6.55
2023-07-17T16:36:46.255Z,4.43
2023-07-17T16:39:18.579Z,6.70
2023-07-17T16:41:50.419Z,4.82
2023-07-17T16:44:22.330Z,4.90
2023-07-17T16:46:54.190Z,6.13
2023-07-17T16:49:26.002Z,4.22
2023-07-17T16:51:57.812Z,5.70
2023-07-17T16:54:29.728Z,4.82
2023-07-17T16:57:01.671Z,6.88
2023-07-17T16:59:33.477Z,5.07
2023-07-17T17:02:05.855Z,5.53
2023-07-17T17:04:37.709Z,5.13
2023-07-17T17:07:09.564Z,4.55
2023-07-17T17:09:41.395Z,7.85
2023-07-17T17:12:13.331Z,6.38
2023-07-17T17:14:45.307Z,4.45
2023-07-17T17:17:17.437Z,6.18
2023-07-17T17:19:49.298Z,8.00
2023-07-17T17:22:21.325Z,5.05
2023-07-17T17:24:53.158Z,5.75
2023-07-17T17:27:26.847Z,6.70
2023-07-17T17:30:01.221Z,9.00
2023-07-17T17:32:33.586Z,6.90
2023-07-17T17:35:06.635Z,5.50
2023-07-17T17:37:38.493Z,6.13
2023-07-17T17:40:10.512Z,7.90
2023-07-17T17:42:42.433Z,5.15
2023-07-17T17:45:15.622Z,6.20
2023-07-17T17:47:47.682Z,5.82
2023-07-17T17:50:19.531Z,5.63
2023-07-17T17:52:52.014Z,6.57
2023-07-17T17:55:23.829Z,5.20
2023-07-17T17:57:55.627Z,5.57
2023-07-17T18:00:27.413Z,5.95
2023-07-17T18:02:59.546Z,5.88
2023-07-17T18:05:31.565Z,7.60
2023-07-17T18:08:03.749Z,7.05
2023-07-17T18:10:36.314Z,6.68
2023-07-17T18:13:08.151Z,9.48
2023-07-17T18:15:40.262Z,6.82
2023-07-17T18:18:14.317Z,5.70
2023-07-17T18:20:46.891Z,5.93
2023-07-17T18:23:18.860Z,6.38
2023-07-17T18:25:50.657Z,5.55
2023-07-17T18:28:22.460Z,7.43
2023-07-17T18:30:54.315Z,5.05
2023-07-17T18:33:26.971Z,6.00
2023-07-17T18:35:59.143Z,3.92
2023-07-17T18:38:30.916Z,5.40
2023-07-17T18:41:03.652Z,7.13
2023-07-17T18:43:35.453Z,2.92
2023-07-17T18:46:07.325Z,5.05
2023-07-17T18:48:39.288Z,4.65
2023-07-17T18:51:11.397Z,4.40
2023-07-17T18:53:43.225Z,3.83
2023-07-17T18:56:15.237Z,6.72
2023-07-17T18:58:47.029Z,4.22
2023-07-17T19:01:19.189Z,3.72
2023-07-17T19:03:52.418Z,5.28
2023-07-17T19:06:24.270Z,3.65
2023-07-17T19:08:56.801Z,3.90
2023-07-17T19:11:28.596Z,2.78
2023-07-17T19:14:00.381Z,6.32
2023-07-17T19:16:32.307Z,9.82
2023-07-17T19:19:04.342Z,4.90
2023-07-17T19:21:37.103Z,2.60
2023-07-17T19:24:08.912Z,3.78
2023-07-17T19:26:40.881Z,3.15
2023-07-17T19:29:12.686Z,6.13
2023-07-17T19:31:44.594Z,3.97
2023-07-17T19:34:19.374Z,3.92
2023-07-17T19:36:51.240Z,2.88
2023-07-17T19:39:23.692Z,2.97
2023-07-17T19:41:55.496Z,3.60
2023-07-17T19:44:27.269Z,4.57
2023-07-17T19:47:00.783Z,3.83
2023-07-17T19:49:33.611Z,4.38
2023-07-17T19:52:06.167Z,6.53
2023-07-17T19:54:37.962Z,4.97
2023-07-17T19:57:09.751Z,3.58
2023-07-17T19:59:41.508Z,3.80
2023-07-17T20:02:13.292Z,3.58
2023-07-17T20:04:45.142Z,5.15
2023-07-17T20:07:16.996Z,4.22
2023-07-17T20:09:49.362Z,3.70
2023-07-17T20:12:21.714Z,4.38
2023-07-17T20:14:53.471Z,5.10
2023-07-17T20:17:26.578Z,8.02
2023-07-17T20:19:58.398Z,5.05
2023-07-17T20:22:30.245Z,3.33
2023-07-17T20:25:02.047Z,6.85
2023-07-17T20:27:39.759Z,4.10
2023-07-17T20:30:13.894Z,4.78
2023-07-17T20:32:45.847Z,4.78
2023-07-17T20:35:27.323Z,6.32
2023-07-17T20:38:00.645Z,5.88
2023-07-17T20:40:33.685Z,4.60
2023-07-17T20:43:05.527Z,5.55
2023-07-17T20:45:49.714Z,6.55
2023-07-17T20:48:22.135Z,6.90
2023-07-17T20:51:10.711Z,8.00
2023-07-17T20:53:43.317Z,5.45
2023-07-17T20:56:15.760Z,6.95
2023-07-17T20:58:47.631Z,7.03
2023-07-17T21:01:24.690Z,6.78
2023-07-17T21:03:58.756Z,6.82
2023-07-17T21:06:31.063Z,9.60
2023-07-17T21:09:03.000Z,7.07
2023-07-17T21:11:34.775Z,8.20
2023-07-17T21:14:06.607Z,8.73
2023-07-17T21:16:38.415Z,10.43
2023-07-17T21:19:10.173Z,9.13
2023-07-17T21:21:42.179Z,11.18
2023-07-17T21:24:14.026Z,8.13
2023-07-17T21:26:45.817Z,7.95
2023-07-17T21:29:17.586Z,7.78
2023-07-17T21:31:49.369Z,9.75
2023-07-17T21:34:21.157Z,7.93
2023-07-17T21:36:52.911Z,9.57
2023-07-17T21:39:25.338Z,8.35
2023-07-17T21:41:57.204Z,11.05
2023-07-17T21:44:29.176Z,9.88
2023-07-17T21:47:01.036Z,12.55
2023-07-17T21:49:32.897Z,9.77
2023-07-17T21:52:05.003Z,11.15
2023-07-17T21:54:36.813Z,11.27
2023-07-17T21:57:08.606Z,11.10
2023-07-17T21:59:43.357Z,10.27
2023-07-17T22:02:15.151Z,11.07
2023-07-17T22:04:47.275Z,10.20
2023-07-17T22:07:19.041Z,10.27
2023-07-17T22:09:52.211Z,8.88
2023-07-17T22:12:23.975Z,9.70
2023-07-17T22:14:55.978Z,10.98
2023-07-17T22:17:27.866Z,10.27
2023-07-17T22:20:01.240Z,10.65
2023-07-17T22:22:33.214Z,11.32
2023-07-17T22:25:05.443Z,12.18
2023-07-17T22:27:37.237Z,10.77
2023-07-17T22:30:09.791Z,13.13
2023-07-17T22:32:42.075Z,12.48
2023-07-17T22:35:13.905Z,10.50
2023-07-17T22:37:45.675Z,12.00
2023-07-17T22:40:17.485Z,10.52
2023-07-17T22:42:50.210Z,10.55
2023-07-17T22:45:22.035Z,13.60
2023-07-17T22:47:56.185Z,14.63
2023-07-17T22:50:28.050Z,12.20
2023-07-17T22:52:59.969Z,11.90
2023-07-17T22:55:32.366Z,12.30
2023-07-17T22:58:04.169Z,13.45
2023-07-17T23:00:35.986Z,11.70
2023-07-17T23:03:07.940Z,15.50
2023-07-17T23:05:39.911Z,15.77
2023-07-17T23:08:11.741Z,13.05
2023-07-17T23:10:43.508Z,11.13
2023-07-17T23:13:16.105Z,13.32
2023-07-17T23:15:48.032Z,12.77
2023-07-17T23:18:20.923Z,12.88
2023-07-17T23:20:52.835Z,10.68
2023-07-17T23:23:24.737Z,12.82
2023-07-17T23:25:56.526Z,14.68
2023-07-17T23:28:28.323Z,15.50
2023-07-17T23:31:00.093Z,18.92
2023-07-17T23:33:31.933Z,16.60
2023-07-17T23:36:04.071Z,14.82
2023-07-17T23:38:36.834Z,16.08
2023-07-17T23:41:09.109Z,12.55
2023-07-17T23:43:40.941Z,15.13
2023-07-17T23:46:12.784Z,14.80
2023-07-17T23:48:45.887Z,14.30
2023-07-17T23:51:19.724Z,15.88
2023-07-17T23:53:51.723Z,13.93
2023-07-17T23:56:23.551Z,12.70
2023-07-17T23:58:55.330Z,15.63
